sensor_id;sensor_type;location;lat;lon;timestamp;P1;durP1;ratioP1;P2;durP2;ratioP2
10605;SDS011;5350;42.698;23.148;2023-08-17T00:02:26;13.50;;;10.93;;
10605;SDS011;5350;42.698;23.148;2023-08-17T00:04:53;14.48;;;12.70;;
10605;SDS011;5350;42.698;23.148;2023-08-17T00:07:19;12.90;;;10.82;;
10605;SDS011;5350;42.698;23.148;2023-08-17T00:09:46;10.80;;;9.65;;
10605;SDS011;5350;42.698;23.148;2023-08-17T00:12:13;13.30;;;10.35;;
10605;SDS011;5350;42.698;23.148;2023-08-17T00:14:41;12.93;;;9.77;;
10605;SDS011;5350;42.698;23.148;2023-08-17T00:17:08;14.35;;;8.57;;
10605;SDS011;5350;42.698;23.148;2023-08-17T00:19:34;9.82;;;8.70;;
10605;SDS011;5350;42.698;23.148;2023-08-17T00:22:01;9.93;;;8.93;;
10605;SDS011;5350;42.698;23.148;2023-08-17T00:24:28;10.85;;;9.00;;
10605;SDS011;5350;42.698;23.148;2023-08-17T00:26:54;11.57;;;8.43;;
10605;SDS011;5350;42.698;23.148;2023-08-17T00:29:21;12.10;;;7.75;;
10605;SDS011;5350;42.698;23.148;2023-08-17T00:31:49;10.25;;;8.13;;
10605;SDS011;5350;42.698;23.148;2023-08-17T00:34:17;9.40;;;8.38;;
10605;SDS011;5350;42.698;23.148;2023-08-17T00:36:43;9.02;;;8.13;;
10605;SDS011;5350;42.698;23.148;2023-08-17T00:39:10;8.60;;;7.75;;
10605;SDS011;5350;42.698;23.148;2023-08-17T00:41:37;12.88;;;6.88;;
10605;SDS011;5350;42.698;23.148;2023-08-17T00:44:04;10.70;;;8.18;;
10605;SDS011;5350;42.698;23.148;2023-08-17T00:46:31;10.43;;;7.53;;
10605;SDS011;5350;42.698;23.148;2023-08-17T00:49:00;9.25;;;7.55;;
10605;SDS011;5350;42.698;23.148;2023-08-17T00:51:26;8.38;;;7.40;;
10605;SDS011;5350;42.698;23.148;2023-08-17T00:53:54;9.23;;;7.45;;
10605;SDS011;5350;42.698;23.148;2023-08-17T00:56:23;9.70;;;7.25;;
10605;SDS011;5350;42.698;23.148;2023-08-17T00:58:50;7.68;;;6.97;;
10605;SDS011;5350;42.698;23.148;2023-08-17T01:01:17;8.30;;;7.47;;
10605;SDS011;5350;42.698;23.148;2023-08-17T01:03:45;10.35;;;6.50;;
10605;SDS011;5350;42.698;23.148;2023-08-17T01:06:13;7.93;;;6.72;;
10605;SDS011;5350;42.698;23.148;2023-08-17T01:08:40;11.65;;;7.30;;
10605;SDS011;5350;42.698;23.148;2023-08-17T01:11:10;7.60;;;6.78;;
10605;SDS011;5350;42.698;23.148;2023-08-17T01:13:46;7.13;;;6.10;;
10605;SDS011;5350;42.698;23.148;2023-08-17T01:16:20;8.32;;;6.90;;
10605;SDS011;5350;42.698;23.148;2023-08-17T01:18:51;13.52;;;7.45;;
10605;SDS011;5350;42.698;23.148;2023-08-17T01:21:21;7.45;;;6.70;;
10605;SDS011;5350;42.698;23.148;2023-08-17T01:23:50;8.75;;;5.75;;
10605;SDS011;5350;42.698;23.148;2023-08-17T01:26:17;6.95;;;6.18;;
10605;SDS011;5350;42.698;23.148;2023-08-17T01:28:44;7.25;;;6.63;;
10605;SDS011;5350;42.698;23.148;2023-08-17T01:31:14;7.60;;;6.65;;
10605;SDS011;5350;42.698;23.148;2023-08-17T01:33:48;6.82;;;6.22;;
10605;SDS011;5350;42.698;23.148;2023-08-17T01:36:19;7.03;;;6.15;;
10605;SDS011;5350;42.698;23.148;2023-08-17T01:38:52;8.30;;;6.35;;
10605;SDS011;5350;42.698;23.148;2023-08-17T01:41:22;7.95;;;6.45;;
10605;SDS011;5350;42.698;23.148;2023-08-17T01:43:50;8.15;;;6.32;;
10605;SDS011;5350;42.698;23.148;2023-08-17T01:46:17;7.32;;;6.03;;
10605;SDS011;5350;42.698;23.148;2023-08-17T01:48:44;7.38;;;6.40;;
10605;SDS011;5350;42.698;23.148;2023-08-17T01:51:15;6.82;;;6.15;;
10605;SDS011;5350;42.698;23.148;2023-08-17T01:53:43;10.60;;;6.00;;
10605;SDS011;5350;42.698;23.148;2023-08-17T01:56:12;6.60;;;5.80;;
10605;SDS011;5350;42.698;23.148;2023-08-17T01:58:38;6.30;;;5.70;;
10605;SDS011;5350;42.698;23.148;2023-08-17T02:01:05;6.60;;;5.88;;
10605;SDS011;5350;42.698;23.148;2023-08-17T02:03:32;6.60;;;5.78;;
10605;SDS011;5350;42.698;23.148;2023-08-17T02:05:59;7.03;;;5.50;;
10605;SDS011;5350;42.698;23.148;2023-08-17T02:08:25;8.18;;;6.30;;
10605;SDS011;5350;42.698;23.148;2023-08-17T02:10:52;9.07;;;5.93;;
10605;SDS011;5350;42.698;23.148;2023-08-17T02:13:20;8.95;;;5.60;;
10605;SDS011;5350;42.698;23.148;2023-08-17T02:15:47;7.72;;;5.28;;
10605;SDS011;5350;42.698;23.148;2023-08-17T02:18:14;8.77;;;5.60;;
10605;SDS011;5350;42.698;23.148;2023-08-17T02:20:41;7.13;;;5.05;;
10605;SDS011;5350;42.698;23.148;2023-08-17T02:23:07;9.88;;;5.60;;
10605;SDS011;5350;42.698;23.148;2023-08-17T02:25:37;6.00;;;5.43;;
10605;SDS011;5350;42.698;23.148;2023-08-17T02:28:04;7.80;;;5.45;;
10605;SDS011;5350;42.698;23.148;2023-08-17T02:30:32;9.85;;;5.22;;
10605;SDS011;5350;42.698;23.148;2023-08-17T02:32:59;7.57;;;5.55;;
10605;SDS011;5350;42.698;23.148;2023-08-17T02:35:26;7.70;;;5.55;;
10605;SDS011;5350;42.698;23.148;2023-08-17T02:37:53;6.25;;;5.60;;
10605;SDS011;5350;42.698;23.148;2023-08-17T02:40:20;6.75;;;5.72;;
10605;SDS011;5350;42.698;23.148;2023-08-17T02:42:47;8.23;;;5.70;;
10605;SDS011;5350;42.698;23.148;2023-08-17T02:45:13;9.45;;;5.65;;
10605;SDS011;5350;42.698;23.148;2023-08-17T02:47:41;8.18;;;5.28;;
10605;SDS011;5350;42.698;23.148;2023-08-17T02:50:09;9.15;;;5.47;;
10605;SDS011;5350;42.698;23.148;2023-08-17T02:52:36;6.30;;;5.70;;
10605;SDS011;5350;42.698;23.148;2023-08-17T02:55:03;11.30;;;5.57;;
10605;SDS011;5350;42.698;23.148;2023-08-17T02:57:30;6.78;;;5.20;;
10605;SDS011;5350;42.698;23.148;2023-08-17T02:59:56;6.20;;;5.60;;
10605;SDS011;5350;42.698;23.148;2023-08-17T03:02:23;5.55;;;4.97;;
10605;SDS011;5350;42.698;23.148;2023-08-17T03:04:51;7.13;;;5.60;;
10605;SDS011;5350;42.698;23.148;2023-08-17T03:07:18;5.53;;;5.03;;
10605;SDS011;5350;42.698;23.148;2023-08-17T03:09:45;8.18;;;5.50;;
10605;SDS011;5350;42.698;23.148;2023-08-17T03:12:11;6.15;;;5.53;;
10605;SDS011;5350;42.698;23.148;2023-08-17T03:14:38;5.78;;;5.20;;
10605;SDS011;5350;42.698;23.148;2023-08-17T03:17:05;9.02;;;5.20;;
10605;SDS011;5350;42.698;23.148;2023-08-17T03:19:31;8.05;;;4.93;;
10605;SDS011;5350;42.698;23.148;2023-08-17T03:21:59;8.07;;;4.65;;
10605;SDS011;5350;42.698;23.148;2023-08-17T03:24:26;9.52;;;5.70;;
10605;SDS011;5350;42.698;23.148;2023-08-17T03:26:53;5.13;;;4.63;;
10605;SDS011;5350;42.698;23.148;2023-08-17T03:29:19;8.30;;;4.57;;
10605;SDS011;5350;42.698;23.148;2023-08-17T03:31:46;4.82;;;4.35;;
10605;SDS011;5350;42.698;23.148;2023-08-17T03:34:14;9.75;;;5.15;;
10605;SDS011;5350;42.698;23.148;2023-08-17T03:36:41;9.70;;;4.75;;
10605;SDS011;5350;42.698;23.148;2023-08-17T03:39:09;6.00;;;4.93;;
10605;SDS011;5350;42.698;23.148;2023-08-17T03:41:36;5.43;;;4.93;;
10605;SDS011;5350;42.698;23.148;2023-08-17T03:44:03;5.05;;;4.53;;
10605;SDS011;5350;42.698;23.148;2023-08-17T03:46:32;5.00;;;4.45;;
10605;SDS011;5350;42.698;23.148;2023-08-17T03:48:58;6.88;;;4.18;;
10605;SDS011;5350;42.698;23.148;2023-08-17T03:51:25;6.55;;;4.70;;
10605;SDS011;5350;42.698;23.148;2023-08-17T03:53:52;5.50;;;4.70;;
10605;SDS011;5350;42.698;23.148;2023-08-17T03:56:20;6.88;;;3.97;;
10605;SDS011;5350;42.698;23.148;2023-08-17T03:58:46;5.32;;;4.30;;
10605;SDS011;5350;42.698;23.148;2023-08-17T04:01:13;7.93;;;4.47;;
10605;SDS011;5350;42.698;23.148;2023-08-17T04:03:40;5.43;;;4.03;;
10605;SDS011;5350;42.698;23.148;2023-08-17T04:06:07;9.10;;;4.35;;
10605;SDS011;5350;42.698;23.148;2023-08-17T04:08:35;5.00;;;4.10;;
10605;SDS011;5350;42.698;23.148;2023-08-17T04:11:02;6.43;;;4.43;;
10605;SDS011;5350;42.698;23.148;2023-08-17T04:13:30;8.23;;;4.60;;
10605;SDS011;5350;42.698;23.148;2023-08-17T04:15:57;5.35;;;4.68;;
10605;SDS011;5350;42.698;23.148;2023-08-17T04:18:24;5.25;;;3.95;;
10605;SDS011;5350;42.698;23.148;2023-08-17T04:20:50;5.78;;;4.32;;
10605;SDS011;5350;42.698;23.148;2023-08-17T04:23:17;6.53;;;4.55;;
10605;SDS011;5350;42.698;23.148;2023-08-17T04:25:44;6.20;;;4.60;;
10605;SDS011;5350;42.698;23.148;2023-08-17T04:28:10;5.47;;;4.40;;
10605;SDS011;5350;42.698;23.148;2023-08-17T04:30:38;7.53;;;4.15;;
10605;SDS011;5350;42.698;23.148;2023-08-17T04:33:05;5.53;;;4.43;;
10605;SDS011;5350;42.698;23.148;2023-08-17T04:35:33;5.93;;;4.30;;
10605;SDS011;5350;42.698;23.148;2023-08-17T04:37:59;6.35;;;4.40;;
10605;SDS011;5350;42.698;23.148;2023-08-17T04:40:26;7.47;;;4.50;;
10605;SDS011;5350;42.698;23.148;2023-08-17T04:42:53;8.73;;;4.75;;
10605;SDS011;5350;42.698;23.148;2023-08-17T04:45:20;5.55;;;4.57;;
10605;SDS011;5350;42.698;23.148;2023-08-17T04:47:48;6.80;;;4.57;;
10605;SDS011;5350;42.698;23.148;2023-08-17T04:50:15;9.13;;;4.20;;
10605;SDS011;5350;42.698;23.148;2023-08-17T04:52:42;9.38;;;4.63;;
10605;SDS011;5350;42.698;23.148;2023-08-17T04:55:09;6.57;;;4.38;;
10605;SDS011;5350;42.698;23.148;2023-08-17T04:57:36;7.15;;;4.47;;
10605;SDS011;5350;42.698;23.148;2023-08-17T05:00:03;5.35;;;4.45;;
10605;SDS011;5350;42.698;23.148;2023-08-17T05:02:34;10.23;;;5.10;;
10605;SDS011;5350;42.698;23.148;2023-08-17T05:05:03;7.18;;;4.75;;
10605;SDS011;5350;42.698;23.148;2023-08-17T05:07:31;9.70;;;4.75;;
10605;SDS011;5350;42.698;23.148;2023-08-17T05:09:58;11.60;;;4.70;;
10605;SDS011;5350;42.698;23.148;2023-08-17T05:12:24;9.68;;;4.70;;
10605;SDS011;5350;42.698;23.148;2023-08-17T05:14:51;9.77;;;5.18;;
10605;SDS011;5350;42.698;23.148;2023-08-17T05:17:18;8.25;;;4.47;;
10605;SDS011;5350;42.698;23.148;2023-08-17T05:19:44;6.97;;;4.85;;
10605;SDS011;5350;42.698;23.148;2023-08-17T05:22:12;5.38;;;4.68;;
10605;SDS011;5350;42.698;23.148;2023-08-17T05:24:39;6.30;;;4.13;;
10605;SDS011;5350;42.698;23.148;2023-08-17T05:27:06;6.63;;;4.18;;
10605;SDS011;5350;42.698;23.148;2023-08-17T05:29:32;7.55;;;4.30;;
10605;SDS011;5350;42.698;23.148;2023-08-17T05:31:59;10.13;;;4.40;;
10605;SDS011;5350;42.698;23.148;2023-08-17T05:34:26;4.50;;;4.10;;
10605;SDS011;5350;42.698;23.148;2023-08-17T05:36:53;7.70;;;3.67;;
10605;SDS011;5350;42.698;23.148;2023-08-17T05:39:21;8.25;;;4.03;;
10605;SDS011;5350;42.698;23.148;2023-08-17T05:41:47;9.07;;;4.07;;
10605;SDS011;5350;42.698;23.148;2023-08-17T05:44:14;5.32;;;4.55;;
10605;SDS011;5350;42.698;23.148;2023-08-17T05:46:42;5.85;;;4.75;;
10605;SDS011;5350;42.698;23.148;2023-08-17T05:49:09;9.02;;;4.82;;
10605;SDS011;5350;42.698;23.148;2023-08-17T05:51:35;10.25;;;5.75;;
10605;SDS011;5350;42.698;23.148;2023-08-17T05:54:03;8.32;;;5.55;;
10605;SDS011;5350;42.698;23.148;2023-08-17T05:56:32;16.75;;;7.05;;
10605;SDS011;5350;42.698;23.148;2023-08-17T05:58:59;13.15;;;7.43;;
10605;SDS011;5350;42.698;23.148;2023-08-17T06:01:26;10.15;;;7.38;;
10605;SDS011;5350;42.698;23.148;2023-08-17T06:03:52;11.05;;;7.35;;
10605;SDS011;5350;42.698;23.148;2023-08-17T06:06:19;9.20;;;7.03;;
10605;SDS011;5350;42.698;23.148;2023-08-17T06:08:46;9.07;;;7.10;;
10605;SDS011;5350;42.698;23.148;2023-08-17T06:11:13;8.63;;;7.70;;
10605;SDS011;5350;42.698;23.148;2023-08-17T06:13:41;8.93;;;7.88;;
10605;SDS011;5350;42.698;23.148;2023-08-17T06:16:07;12.15;;;7.70;;
10605;SDS011;5350;42.698;23.148;2023-08-17T06:18:35;8.80;;;7.40;;
10605;SDS011;5350;42.698;23.148;2023-08-17T06:21:03;9.60;;;7.10;;
10605;SDS011;5350;42.698;23.148;2023-08-17T06:23:29;10.35;;;7.00;;
10605;SDS011;5350;42.698;23.148;2023-08-17T06:25:56;9.98;;;6.97;;
10605;SDS011;5350;42.698;23.148;2023-08-17T06:28:24;10.00;;;6.80;;
10605;SDS011;5350;42.698;23.148;2023-08-17T06:30:52;9.15;;;7.35;;
10605;SDS011;5350;42.698;23.148;2023-08-17T06:33:20;8.23;;;6.78;;
10605;SDS011;5350;42.698;23.148;2023-08-17T06:35:48;8.95;;;6.50;;
10605;SDS011;5350;42.698;23.148;2023-08-17T06:38:15;12.55;;;6.82;;
10605;SDS011;5350;42.698;23.148;2023-08-17T06:40:41;9.98;;;6.65;;
10605;SDS011;5350;42.698;23.148;2023-08-17T06:43:09;8.55;;;6.45;;
10605;SDS011;5350;42.698;23.148;2023-08-17T06:45:36;10.05;;;6.55;;
10605;SDS011;5350;42.698;23.148;2023-08-17T06:48:04;8.48;;;6.57;;
10605;SDS011;5350;42.698;23.148;2023-08-17T06:50:32;11.68;;;6.00;;
10605;SDS011;5350;42.698;23.148;2023-08-17T06:52:58;9.40;;;5.70;;
10605;SDS011;5350;42.698;23.148;2023-08-17T06:55:25;7.47;;;5.80;;
10605;SDS011;5350;42.698;23.148;2023-08-17T06:57:52;7.22;;;6.53;;
10605;SDS011;5350;42.698;23.148;2023-08-17T07:00:20;16.23;;;7.25;;
10605;SDS011;5350;42.698;23.148;2023-08-17T07:02:47;13.93;;;7.07;;
10605;SDS011;5350;42.698;23.148;2023-08-17T07:05:15;8.70;;;7.80;;
10605;SDS011;5350;42.698;23.148;2023-08-17T07:07:43;11.85;;;7.32;;
10605;SDS011;5350;42.698;23.148;2023-08-17T07:10:10;9.00;;;6.70;;
10605;SDS011;5350;42.698;23.148;2023-08-17T07:12:37;10.88;;;6.25;;
10605;SDS011;5350;42.698;23.148;2023-08-17T07:15:04;11.10;;;6.20;;
10605;SDS011;5350;42.698;23.148;2023-08-17T07:17:32;7.00;;;5.65;;
10605;SDS011;5350;42.698;23.148;2023-08-17T07:19:59;5.88;;;5.18;;
10605;SDS011;5350;42.698;23.148;2023-08-17T07:22:27;6.20;;;5.15;;
10605;SDS011;5350;42.698;23.148;2023-08-17T07:24:54;9.40;;;4.97;;
10605;SDS011;5350;42.698;23.148;2023-08-17T07:27:20;6.35;;;5.45;;
10605;SDS011;5350;42.698;23.148;2023-08-17T07:29:47;6.07;;;5.15;;
10605;SDS011;5350;42.698;23.148;2023-08-17T07:32:14;7.63;;;4.95;;
10605;SDS011;5350;42.698;23.148;2023-08-17T07:34:40;5.70;;;4.82;;
10605;SDS011;5350;42.698;23.148;2023-08-17T07:37:07;9.35;;;4.40;;
10605;SDS011;5350;42.698;23.148;2023-08-17T07:39:35;4.22;;;3.83;;
10605;SDS011;5350;42.698;23.148;2023-08-17T07:42:02;5.72;;;3.95;;
10605;SDS011;5350;42.698;23.148;2023-08-17T07:44:29;10.40;;;4.30;;
10605;SDS011;5350;42.698;23.148;2023-08-17T07:46:56;5.68;;;3.22;;
10605;SDS011;5350;42.698;23.148;2023-08-17T07:49:24;6.18;;;3.30;;
10605;SDS011;5350;42.698;23.148;2023-08-17T07:51:51;7.60;;;3.60;;
10605;SDS011;5350;42.698;23.148;2023-08-17T07:54:17;3.58;;;3.28;;
10605;SDS011;5350;42.698;23.148;2023-08-17T07:56:45;4.78;;;3.40;;
10605;SDS011;5350;42.698;23.148;2023-08-17T07:59:13;5.95;;;3.40;;
10605;SDS011;5350;42.698;23.148;2023-08-17T08:01:40;5.10;;;3.17;;
10605;SDS011;5350;42.698;23.148;2023-08-17T08:04:07;5.28;;;3.17;;
10605;SDS011;5350;42.698;23.148;2023-08-17T08:06:33;4.30;;;3.20;;
10605;SDS011;5350;42.698;23.148;2023-08-17T08:09:00;6.28;;;3.58;;
10605;SDS011;5350;42.698;23.148;2023-08-17T08:11:27;5.03;;;3.97;;
10605;SDS011;5350;42.698;23.148;2023-08-17T08:13:57;5.63;;;3.83;;
10605;SDS011;5350;42.698;23.148;2023-08-17T08:16:24;5.70;;;3.75;;
10605;SDS011;5350;42.698;23.148;2023-08-17T08:18:50;6.20;;;3.88;;
10605;SDS011;5350;42.698;23.148;2023-08-17T08:21:17;6.90;;;3.78;;
10605;SDS011;5350;42.698;23.148;2023-08-17T08:23:44;13.20;;;4.60;;
10605;SDS011;5350;42.698;23.148;2023-08-17T08:26:10;7.95;;;3.83;;
10605;SDS011;5350;42.698;23.148;2023-08-17T08:28:37;7.72;;;4.00;;
10605;SDS011;5350;42.698;23.148;2023-08-17T08:31:05;6.10;;;4.10;;
10605;SDS011;5350;42.698;23.148;2023-08-17T08:33:32;3.60;;;3.10;;
10605;SDS011;5350;42.698;23.148;2023-08-17T08:35:59;6.20;;;2.90;;
10605;SDS011;5350;42.698;23.148;2023-08-17T08:38:26;11.60;;;2.65;;
10605;SDS011;5350;42.698;23.148;2023-08-17T08:40:54;3.65;;;2.42;;
10605;SDS011;5350;42.698;23.148;2023-08-17T08:43:21;4.00;;;2.42;;
10605;SDS011;5350;42.698;23.148;2023-08-17T08:45:47;5.22;;;2.42;;
10605;SDS011;5350;42.698;23.148;2023-08-17T08:48:16;5.07;;;2.40;;
10605;SDS011;5350;42.698;23.148;2023-08-17T08:50:45;3.92;;;2.70;;
10605;SDS011;5350;42.698;23.148;2023-08-17T08:53:13;5.18;;;2.33;;
10605;SDS011;5350;42.698;23.148;2023-08-17T08:55:41;5.68;;;2.70;;
10605;SDS011;5350;42.698;23.148;2023-08-17T08:58:15;3.25;;;2.92;;
10605;SDS011;5350;42.698;23.148;2023-08-17T09:00:46;6.65;;;3.10;;
10605;SDS011;5350;42.698;23.148;2023-08-17T09:03:15;4.15;;;2.25;;
10605;SDS011;5350;42.698;23.148;2023-08-17T09:05:45;3.65;;;2.10;;
10605;SDS011;5350;42.698;23.148;2023-08-17T09:08:14;5.28;;;2.25;;
10605;SDS011;5350;42.698;23.148;2023-08-17T09:10:42;3.22;;;2.10;;
10605;SDS011;5350;42.698;23.148;2023-08-17T09:13:09;3.08;;;2.42;;
10605;SDS011;5350;42.698;23.148;2023-08-17T09:15:36;2.85;;;2.55;;
10605;SDS011;5350;42.698;23.148;2023-08-17T09:18:03;5.22;;;2.40;;
10605;SDS011;5350;42.698;23.148;2023-08-17T09:20:37;4.82;;;2.70;;
10605;SDS011;5350;42.698;23.148;2023-08-17T09:23:05;2.95;;;2.20;;
10605;SDS011;5350;42.698;23.148;2023-08-17T09:25:38;4.53;;;2.70;;
10605;SDS011;5350;42.698;23.148;2023-08-17T09:28:09;4.78;;;2.70;;
10605;SDS011;5350;42.698;23.148;2023-08-17T09:33:23;3.90;;;2.33;;
10605;SDS011;5350;42.698;23.148;2023-08-17T09:35:53;4.00;;;2.10;;
10605;SDS011;5350;42.698;23.148;2023-08-17T09:38:20;3.25;;;2.38;;
10605;SDS011;5350;42.698;23.148;2023-08-17T09:40:47;2.88;;;2.22;;
10605;SDS011;5350;42.698;23.148;2023-08-17T09:43:15;2.85;;;2.55;;
10605;SDS011;5350;42.698;23.148;2023-08-17T09:45:43;2.90;;;2.60;;
10605;SDS011;5350;42.698;23.148;2023-08-17T09:48:13;4.22;;;2.58;;
10605;SDS011;5350;42.698;23.148;2023-08-17T09:50:41;6.25;;;2.55;;
10605;SDS011;5350;42.698;23.148;2023-08-17T09:53:12;4.20;;;2.50;;
10605;SDS011;5350;42.698;23.148;2023-08-17T09:55:40;3.25;;;2.47;;
10605;SDS011;5350;42.698;23.148;2023-08-17T09:58:07;4.82;;;2.50;;
10605;SDS011;5350;42.698;23.148;2023-08-17T10:00:34;4.57;;;2.30;;
10605;SDS011;5350;42.698;23.148;2023-08-17T10:03:04;2.20;;;2.00;;
10605;SDS011;5350;42.698;23.148;2023-08-17T10:05:31;3.45;;;2.30;;
10605;SDS011;5350;42.698;23.148;2023-08-17T10:08:04;4.32;;;2.42;;
10605;SDS011;5350;42.698;23.148;2023-08-17T10:10:35;2.88;;;2.10;;
10605;SDS011;5350;42.698;23.148;2023-08-17T10:13:06;4.38;;;2.00;;
10605;SDS011;5350;42.698;23.148;2023-08-17T10:15:37;5.57;;;2.25;;
10605;SDS011;5350;42.698;23.148;2023-08-17T10:18:09;3.38;;;2.40;;
10605;SDS011;5350;42.698;23.148;2023-08-17T10:20:45;4.43;;;2.30;;
10605;SDS011;5350;42.698;23.148;2023-08-17T10:23:22;5.82;;;2.38;;
10605;SDS011;5350;42.698;23.148;2023-08-17T10:25:51;4.05;;;2.45;;
10605;SDS011;5350;42.698;23.148;2023-08-17T10:28:19;3.25;;;2.80;;
10605;SDS011;5350;42.698;23.148;2023-08-17T10:30:47;4.30;;;2.30;;
10605;SDS011;5350;42.698;23.148;2023-08-17T10:33:14;3.53;;;2.05;;
10605;SDS011;5350;42.698;23.148;2023-08-17T10:35:41;6.60;;;2.22;;
10605;SDS011;5350;42.698;23.148;2023-08-17T10:38:09;3.80;;;2.05;;
10605;SDS011;5350;42.698;23.148;2023-08-17T10:40:37;2.85;;;1.90;;
10605;SDS011;5350;42.698;23.148;2023-08-17T10:43:07;4.85;;;1.90;;
10605;SDS011;5350;42.698;23.148;2023-08-17T10:45:34;8.02;;;1.75;;
10605;SDS011;5350;42.698;23.148;2023-08-17T10:51:00;3.47;;;1.73;;
10605;SDS011;5350;42.698;23.148;2023-08-17T10:53:30;5.57;;;1.98;;
10605;SDS011;5350;42.698;23.148;2023-08-17T10:56:01;5.07;;;1.85;;
10605;SDS011;5350;42.698;23.148;2023-08-17T10:58:31;3.50;;;2.05;;
10605;SDS011;5350;42.698;23.148;2023-08-17T11:00:59;1.90;;;1.77;;
10605;SDS011;5350;42.698;23.148;2023-08-17T11:03:26;3.63;;;1.90;;
10605;SDS011;5350;42.698;23.148;2023-08-17T11:05:53;2.72;;;1.55;;
10605;SDS011;5350;42.698;23.148;2023-08-17T11:08:22;2.45;;;1.90;;
10605;SDS011;5350;42.698;23.148;2023-08-17T11:10:57;4.07;;;1.90;;
10605;SDS011;5350;42.698;23.148;2023-08-17T11:13:27;3.88;;;1.75;;
10605;SDS011;5350;42.698;23.148;2023-08-17T11:15:56;3.03;;;1.75;;
10605;SDS011;5350;42.698;23.148;2023-08-17T11:18:24;7.20;;;2.10;;
10605;SDS011;5350;42.698;23.148;2023-08-17T11:20:51;8.60;;;2.97;;
10605;SDS011;5350;42.698;23.148;2023-08-17T11:23:19;2.83;;;1.90;;
10605;SDS011;5350;42.698;23.148;2023-08-17T11:25:46;3.42;;;1.70;;
10605;SDS011;5350;42.698;23.148;2023-08-17T11:28:13;2.03;;;1.83;;
10605;SDS011;5350;42.698;23.148;2023-08-17T11:30:40;3.75;;;2.03;;
10605;SDS011;5350;42.698;23.148;2023-08-17T11:33:09;5.80;;;2.50;;
10605;SDS011;5350;42.698;23.148;2023-08-17T11:35:36;3.95;;;3.47;;
10605;SDS011;5350;42.698;23.148;2023-08-17T11:38:04;10.02;;;9.07;;
10605;SDS011;5350;42.698;23.148;2023-08-17T11:40:31;4.75;;;2.90;;
10605;SDS011;5350;42.698;23.148;2023-08-17T11:42:59;3.95;;;3.55;;
10605;SDS011;5350;42.698;23.148;2023-08-17T11:45:26;6.47;;;3.58;;
10605;SDS011;5350;42.698;23.148;2023-08-17T11:47:53;2.90;;;2.65;;
10605;SDS011;5350;42.698;23.148;2023-08-17T11:50:21;5.25;;;3.88;;
10605;SDS011;5350;42.698;23.148;2023-08-17T11:52:50;4.70;;;3.25;;
10605;SDS011;5350;42.698;23.148;2023-08-17T11:55:17;7.20;;;3.78;;
10605;SDS011;5350;42.698;23.148;2023-08-17T11:57:45;4.18;;;3.00;;
10605;SDS011;5350;42.698;23.148;2023-08-17T12:00:16;5.45;;;3.05;;
10605;SDS011;5350;42.698;23.148;2023-08-17T12:02:46;4.05;;;3.15;;
10605;SDS011;5350;42.698;23.148;2023-08-17T12:05:13;17.95;;;5.13;;
10605;SDS011;5350;42.698;23.148;2023-08-17T12:07:46;3.60;;;3.00;;
10605;SDS011;5350;42.698;23.148;2023-08-17T12:10:12;3.08;;;2.80;;
10605;SDS011;5350;42.698;23.148;2023-08-17T12:12:39;5.88;;;3.10;;
10605;SDS011;5350;42.698;23.148;2023-08-17T12:15:06;6.35;;;3.47;;
10605;SDS011;5350;42.698;23.148;2023-08-17T12:17:35;5.38;;;2.80;;
10605;SDS011;5350;42.698;23.148;2023-08-17T12:20:07;4.10;;;2.83;;
10605;SDS011;5350;42.698;23.148;2023-08-17T12:22:34;5.60;;;3.08;;
10605;SDS011;5350;42.698;23.148;2023-08-17T12:25:02;8.57;;;3.20;;
10605;SDS011;5350;42.698;23.148;2023-08-17T12:27:31;4.10;;;3.28;;
10605;SDS011;5350;42.698;23.148;2023-08-17T12:29:58;7.90;;;3.13;;
10605;SDS011;5350;42.698;23.148;2023-08-17T12:32:24;3.42;;;3.13;;
10605;SDS011;5350;42.698;23.148;2023-08-17T12:34:51;3.70;;;3.28;;
10605;SDS011;5350;42.698;23.148;2023-08-17T12:37:18;5.60;;;3.70;;
10605;SDS011;5350;42.698;23.148;2023-08-17T12:39:46;4.28;;;3.30;;
10605;SDS011;5350;42.698;23.148;2023-08-17T12:42:15;3.92;;;3.40;;
10605;SDS011;5350;42.698;23.148;2023-08-17T12:44:43;3.70;;;3.08;;
10605;SDS011;5350;42.698;23.148;2023-08-17T12:47:10;6.55;;;3.22;;
10605;SDS011;5350;42.698;23.148;2023-08-17T12:49:36;3.53;;;3.22;;
10605;SDS011;5350;42.698;23.148;2023-08-17T12:52:03;5.68;;;3.15;;
10605;SDS011;5350;42.698;23.148;2023-08-17T12:54:30;5.97;;;3.42;;
10605;SDS011;5350;42.698;23.148;2023-08-17T12:56:57;5.80;;;3.42;;
10605;SDS011;5350;42.698;23.148;2023-08-17T12:59:25;5.50;;;3.40;;
10605;SDS011;5350;42.698;23.148;2023-08-17T13:01:52;4.60;;;3.40;;
10605;SDS011;5350;42.698;23.148;2023-08-17T13:04:18;3.80;;;3.28;;
10605;SDS011;5350;42.698;23.148;2023-08-17T13:06:45;6.90;;;3.50;;
10605;SDS011;5350;42.698;23.148;2023-08-17T13:09:13;4.50;;;3.38;;
10605;SDS011;5350;42.698;23.148;2023-08-17T13:11:41;3.60;;;3.25;;
10605;SDS011;5350;42.698;23.148;2023-08-17T13:14:07;6.43;;;3.08;;
10605;SDS011;5350;42.698;23.148;2023-08-17T13:16:35;3.80;;;3.03;;
10605;SDS011;5350;42.698;23.148;2023-08-17T13:19:02;3.60;;;3.33;;
10605;SDS011;5350;42.698;23.148;2023-08-17T13:21:29;4.90;;;3.25;;
10605;SDS011;5350;42.698;23.148;2023-08-17T13:23:56;3.35;;;3.00;;
10605;SDS011;5350;42.698;23.148;2023-08-17T13:26:22;6.38;;;3.40;;
10605;SDS011;5350;42.698;23.148;2023-08-17T13:28:49;4.20;;;2.75;;
10605;SDS011;5350;42.698;23.148;2023-08-17T13:31:16;9.45;;;3.28;;
10605;SDS011;5350;42.698;23.148;2023-08-17T13:33:44;3.25;;;2.88;;
10605;SDS011;5350;42.698;23.148;2023-08-17T13:36:11;5.10;;;3.08;;
10605;SDS011;5350;42.698;23.148;2023-08-17T13:38:37;4.47;;;2.92;;
10605;SDS011;5350;42.698;23.148;2023-08-17T13:41:04;3.60;;;3.30;;
10605;SDS011;5350;42.698;23.148;2023-08-17T13:43:31;3.42;;;3.13;;
10605;SDS011;5350;42.698;23.148;2023-08-17T13:45:58;3.65;;;3.08;;
10605;SDS011;5350;42.698;23.148;2023-08-17T13:48:25;3.13;;;2.88;;
10605;SDS011;5350;42.698;23.148;2023-08-17T13:50:53;5.53;;;3.25;;
10605;SDS011;5350;42.698;23.148;2023-08-17T13:53:20;3.67;;;3.30;;
10605;SDS011;5350;42.698;23.148;2023-08-17T13:55:47;4.97;;;3.00;;
10605;SDS011;5350;42.698;23.148;2023-08-17T13:58:13;4.30;;;2.80;;
10605;SDS011;5350;42.698;23.148;2023-08-17T14:00:40;5.55;;;3.33;;
10605;SDS011;5350;42.698;23.148;2023-08-17T14:03:07;5.97;;;3.25;;
10605;SDS011;5350;42.698;23.148;2023-08-17T14:05:34;5.57;;;3.15;;
10605;SDS011;5350;42.698;23.148;2023-08-17T14:08:03;6.18;;;2.97;;
10605;SDS011;5350;42.698;23.148;2023-08-17T14:10:31;3.40;;;2.67;;
10605;SDS011;5350;42.698;23.148;2023-08-17T14:12:58;3.55;;;2.80;;
10605;SDS011;5350;42.698;23.148;2023-08-17T14:15:25;3.70;;;2.85;;
10605;SDS011;5350;42.698;23.148;2023-08-17T14:17:52;5.32;;;3.13;;
10605;SDS011;5350;42.698;23.148;2023-08-17T14:20:18;5.13;;;3.00;;
10605;SDS011;5350;42.698;23.148;2023-08-17T14:22:45;5.65;;;2.88;;
10605;SDS011;5350;42.698;23.148;2023-08-17T14:25:13;5.45;;;3.20;;
10605;SDS011;5350;42.698;23.148;2023-08-17T14:27:41;4.88;;;3.00;;
10605;SDS011;5350;42.698;23.148;2023-08-17T14:30:07;7.57;;;3.15;;
10605;SDS011;5350;42.698;23.148;2023-08-17T14:32:34;3.65;;;2.80;;
10605;SDS011;5350;42.698;23.148;2023-08-17T14:35:01;4.35;;;2.72;;
10605;SDS011;5350;42.698;23.148;2023-08-17T14:37:28;3.28;;;2.80;;
10605;SDS011;5350;42.698;23.148;2023-08-17T14:39:54;4.32;;;2.78;;
10605;SDS011;5350;42.698;23.148;2023-08-17T14:42:23;2.72;;;2.53;;
10605;SDS011;5350;42.698;23.148;2023-08-17T14:44:50;3.33;;;2.55;;
10605;SDS011;5350;42.698;23.148;2023-08-17T14:47:17;3.08;;;2.83;;
10605;SDS011;5350;42.698;23.148;2023-08-17T14:49:44;3.17;;;2.90;;
10605;SDS011;5350;42.698;23.148;2023-08-17T14:52:10;3.03;;;2.80;;
10605;SDS011;5350;42.698;23.148;2023-08-17T14:54:37;4.18;;;2.85;;